• Join FlightAware (Why Join?)
  • Login
  • US Flag 
02:03PM EST


 

Airport Tracker/Info


-or-


 

Live Flight TrackerFlight Track Log ✈ JBU918 ✈ 28-Jul-2014 ✈ KJFK - KBOS

Flight Track Log - Related Links

Times and Time Zones

All times are in EDT time to prevent confusion due to time zone crossing. See the JBU918 flight status page for this flight to view local times or setup timezone preferences in your user account.

Time Position Orientation Groundspeed Altitude Reporting Facility
EDT Latitude Longitude Course Direction KTS MPH feet Rate Location/Type
05:53PM 40.6014 -73.7969 179° South 166 191 1,800  Level Boston Center
05:54PM 40.5489 -73.7953 179° South 221 254 4,100 2,460 Climbing Boston Center
05:55PM 40.5658 -73.7033 76° East 278 320 6,900 3,000 Climbing Boston Center
05:56PM 40.6325 -73.6314 39° Northeast 305 351 10,300 1,920 Climbing Boston Center
05:57PM 40.7250 -73.5325 39° Northeast 364 419 11,000 1,080 Climbing Boston Center
05:58PM 40.8078 -73.4544 36° Northeast 369 425 12,600 1,920 Climbing Boston Center
05:59PM 40.9069 -73.3997 23° Northeast 382 440 14,900 2,340 Climbing Boston Center
06:00PM 41.0039 -73.3175 33° Northeast 421 484 17,400 2,460 Climbing Boston Center
06:01PM 41.0994 -73.2119 40° Northeast 424 488 20,100 1,740 Climbing Boston Center
06:02PM 41.1619 -73.0706 60° Northeast 445 512 21,000 420 Climbing Boston Center
06:03PM 41.2147 -72.9200 65° Northeast 448 516 21,000  Level Boston Center
06:04PM 41.2692 -72.7675 65° Northeast 455 524 21,000  Level Boston Center
06:05PM 41.3217 -72.6144 65° Northeast 455 524 21,000  Level Boston Center
06:06PM 41.3750 -72.4617 65° Northeast 455 524 21,000  Level Boston Center
06:07PM 41.4258 -72.3136 65° Northeast 442 509 21,000  Level Boston Center
06:08PM 41.4858 -72.1375 65° Northeast 438 504 21,000  Level Boston Center
06:09PM 41.5364 -71.9900 65° Northeast 438 504 21,000 -660 Level Boston Center
06:10PM 41.5839 -71.8483 66° East 438 504 19,700 -1,860 Descending Boston Center
06:11PM 41.6378 -71.6894 66° East 423 487 17,200 -1,860 Descending Boston Center
06:12PM 41.6872 -71.5411 66° East 417 480 15,800 -1,560 Descending Boston Center
06:13PM 41.7347 -71.4075 64° Northeast 405 466 14,000 -1,560 Descending Boston Center
06:14PM 41.8258 -71.3472 26° Northeast 375 432 12,700 -1,320 Descending Boston Center
06:15PM 41.9311 -71.3047 17° North 371 427 11,300 -1,260 Descending Boston Center
06:16PM 42.0222 -71.2667 17° North 343 395 10,200 -1,380 Descending Boston Center
06:17PM 42.1072 -71.2283 18° North 328 377 8,600 -1,680 Descending Boston Center
06:18PM 42.1975 -71.1881 18° North 321 369 6,800 -1,560 Descending Boston Center
06:20PM 42.2772 -71.1517 19° North 306 352 5,400 -840 Descending Boston Center
06:21PM 42.3625 -71.1244 13° North 306 352 5,100 -300 Descending Boston Center
06:22PM 42.4364 -71.0867 21° North 287 330 4,800 -540 Descending Boston Center
06:23PM 42.5067 -71.0506 21° North 258 297 4,100 -660 Descending Boston Center
06:24PM 42.5697 -71.0139 23° Northeast 252 290 3,500 -540 Descending Boston Center
06:25PM 42.5672 -70.9342 92° East 214 246 3,000 -300 Descending Boston Center
06:26PM 42.5233 -70.9281 174° South 153 176 3,000 -360 Level Boston Center
06:27PM 42.4828 -70.9489 201° Southwest 153 176 2,300 -840 Descending Boston Center
06:28PM 42.4394 -70.9703 200° South 155 178 1,400 -720 Descending Boston Center
06:29PM 42.4072 -70.9853 199° South 128 147 800 -480 Descending Boston Center
06:30PM 42.3794 -70.9969 197° South 114 131 400 -420 Descending Boston Center